sensor_id;sensor_type;location;lat;lon;timestamp;temperature;humidity
2889;DHT22;1453;42.708;23.282;2023-04-01T00:01:05;11.30;99.90
2889;DHT22;1453;42.708;23.282;2023-04-01T00:03:32;11.30;99.90
2889;DHT22;1453;42.708;23.282;2023-04-01T00:05:59;11.30;99.90
2889;DHT22;1453;42.708;23.282;2023-04-01T00:08:27;11.20;99.90
2889;DHT22;1453;42.708;23.282;2023-04-01T00:10:53;11.00;99.90
2889;DHT22;1453;42.708;23.282;2023-04-01T00:13:21;11.00;99.90
2889;DHT22;1453;42.708;23.282;2023-04-01T00:15:48;11.00;99.90
2889;DHT22;1453;42.708;23.282;2023-04-01T00:18:14;11.00;99.90
2889;DHT22;1453;42.708;23.282;2023-04-01T00:20:45;11.00;99.90
2889;DHT22;1453;42.708;23.282;2023-04-01T00:23:12;11.00;99.90
2889;DHT22;1453;42.708;23.282;2023-04-01T00:25:38;11.00;99.90
2889;DHT22;1453;42.708;23.282;2023-04-01T00:28:04;10.90;99.90
2889;DHT22;1453;42.708;23.282;2023-04-01T00:30:30;11.00;99.90
2889;DHT22;1453;42.708;23.282;2023-04-01T00:32:56;11.00;99.90
2889;DHT22;1453;42.708;23.282;2023-04-01T00:35:22;11.00;99.90
2889;DHT22;1453;42.708;23.282;2023-04-01T00:37:48;11.00;99.90
2889;DHT22;1453;42.708;23.282;2023-04-01T00:43:14;11.20;99.90
2889;DHT22;1453;42.708;23.282;2023-04-01T00:45:45;11.20;99.90
2889;DHT22;1453;42.708;23.282;2023-04-01T00:48:17;11.10;99.90
2889;DHT22;1453;42.708;23.282;2023-04-01T00:50:50;10.90;99.90
2889;DHT22;1453;42.708;23.282;2023-04-01T00:53:19;10.80;99.90
2889;DHT22;1453;42.708;23.282;2023-04-01T00:55:51;10.60;99.90
2889;DHT22;1453;42.708;23.282;2023-04-01T00:58:23;10.50;99.90
2889;DHT22;1453;42.708;23.282;2023-04-01T01:00:50;10.50;99.90
2889;DHT22;1453;42.708;23.282;2023-04-01T01:03:16;10.40;99.90
2889;DHT22;1453;42.708;23.282;2023-04-01T01:05:58;10.50;99.90
2889;DHT22;1453;42.708;23.282;2023-04-01T01:11:48;10.40;99.90
2889;DHT22;1453;42.708;23.282;2023-04-01T01:35:30;10.40;99.90
2889;DHT22;1453;42.708;23.282;2023-04-01T01:38:04;10.40;99.90
2889;DHT22;1453;42.708;23.282;2023-04-01T01:40:33;10.40;99.90
2889;DHT22;1453;42.708;23.282;2023-04-01T01:43:05;10.40;99.90
2889;DHT22;1453;42.708;23.282;2023-04-01T01:45:34;10.50;99.90
2889;DHT22;1453;42.708;23.282;2023-04-01T01:48:03;10.50;99.90
2889;DHT22;1453;42.708;23.282;2023-04-01T01:50:30;10.50;99.90
2889;DHT22;1453;42.708;23.282;2023-04-01T01:53:05;10.60;99.90
2889;DHT22;1453;42.708;23.282;2023-04-01T01:55:37;10.70;99.90
2889;DHT22;1453;42.708;23.282;2023-04-01T02:00:43;10.70;99.90
2889;DHT22;1453;42.708;23.282;2023-04-01T02:03:12;10.70;99.90
2889;DHT22;1453;42.708;23.282;2023-04-01T02:05:40;10.80;99.90
2889;DHT22;1453;42.708;23.282;2023-04-01T02:08:13;11.00;99.90
2889;DHT22;1453;42.708;23.282;2023-04-01T02:10:45;11.10;99.90
2889;DHT22;1453;42.708;23.282;2023-04-01T02:13:31;11.10;99.90
2889;DHT22;1453;42.708;23.282;2023-04-01T02:16:31;11.10;99.90
2889;DHT22;1453;42.708;23.282;2023-04-01T02:19:01;11.00;99.90
2889;DHT22;1453;42.708;23.282;2023-04-01T02:21:33;10.80;99.90
2889;DHT22;1453;42.708;23.282;2023-04-01T02:24:01;10.70;99.90
2889;DHT22;1453;42.708;23.282;2023-04-01T02:26:30;10.70;99.90
2889;DHT22;1453;42.708;23.282;2023-04-01T02:28:56;10.80;99.90
2889;DHT22;1453;42.708;23.282;2023-04-01T02:31:23;10.80;99.90
2889;DHT22;1453;42.708;23.282;2023-04-01T02:33:50;11.00;99.90
2889;DHT22;1453;42.708;23.282;2023-04-01T02:36:16;11.00;99.90
2889;DHT22;1453;42.708;23.282;2023-04-01T02:38:43;10.90;99.90
2889;DHT22;1453;42.708;23.282;2023-04-01T02:41:10;10.90;99.90
2889;DHT22;1453;42.708;23.282;2023-04-01T02:43:36;10.90;99.90
2889;DHT22;1453;42.708;23.282;2023-04-01T02:46:02;10.80;99.90
2889;DHT22;1453;42.708;23.282;2023-04-01T02:48:29;10.80;99.90
2889;DHT22;1453;42.708;23.282;2023-04-01T02:50:54;10.80;99.90
2889;DHT22;1453;42.708;23.282;2023-04-01T02:53:21;10.70;99.90
2889;DHT22;1453;42.708;23.282;2023-04-01T02:55:47;10.30;99.90
2889;DHT22;1453;42.708;23.282;2023-04-01T02:58:16;10.40;99.90
2889;DHT22;1453;42.708;23.282;2023-04-01T03:00:42;10.30;99.90
2889;DHT22;1453;42.708;23.282;2023-04-01T03:03:08;10.30;99.90
2889;DHT22;1453;42.708;23.282;2023-04-01T03:05:38;10.20;99.90
2889;DHT22;1453;42.708;23.282;2023-04-01T03:08:05;9.80;99.90
2889;DHT22;1453;42.708;23.282;2023-04-01T03:10:31;9.70;99.90
2889;DHT22;1453;42.708;23.282;2023-04-01T03:12:57;9.80;99.90
2889;DHT22;1453;42.708;23.282;2023-04-01T03:15:23;9.90;99.90
2889;DHT22;1453;42.708;23.282;2023-04-01T03:17:48;10.10;99.90
2889;DHT22;1453;42.708;23.282;2023-04-01T03:20:14;10.10;99.90
2889;DHT22;1453;42.708;23.282;2023-04-01T03:22:40;10.00;99.90
2889;DHT22;1453;42.708;23.282;2023-04-01T03:25:07;9.90;99.90
2889;DHT22;1453;42.708;23.282;2023-04-01T03:27:34;9.90;99.90
2889;DHT22;1453;42.708;23.282;2023-04-01T03:30:03;9.80;99.90
2889;DHT22;1453;42.708;23.282;2023-04-01T03:32:31;9.80;99.90
2889;DHT22;1453;42.708;23.282;2023-04-01T03:34:56;9.90;99.90
2889;DHT22;1453;42.708;23.282;2023-04-01T03:37:23;10.30;99.90
2889;DHT22;1453;42.708;23.282;2023-04-01T03:39:50;10.90;99.90
2889;DHT22;1453;42.708;23.282;2023-04-01T03:42:16;11.00;99.90
2889;DHT22;1453;42.708;23.282;2023-04-01T03:44:42;11.10;99.90
2889;DHT22;1453;42.708;23.282;2023-04-01T03:47:07;11.00;99.90
2889;DHT22;1453;42.708;23.282;2023-04-01T03:49:34;11.00;99.90
2889;DHT22;1453;42.708;23.282;2023-04-01T03:52:00;10.90;99.90
2889;DHT22;1453;42.708;23.282;2023-04-01T03:54:26;10.60;99.90
2889;DHT22;1453;42.708;23.282;2023-04-01T03:56:52;10.50;99.90
2889;DHT22;1453;42.708;23.282;2023-04-01T03:59:18;10.60;99.90
2889;DHT22;1453;42.708;23.282;2023-04-01T04:01:46;10.70;99.90
2889;DHT22;1453;42.708;23.282;2023-04-01T04:04:13;10.80;99.90
2889;DHT22;1453;42.708;23.282;2023-04-01T04:06:40;10.80;99.90
2889;DHT22;1453;42.708;23.282;2023-04-01T04:09:05;10.80;99.90
2889;DHT22;1453;42.708;23.282;2023-04-01T04:11:31;10.80;99.90
2889;DHT22;1453;42.708;23.282;2023-04-01T04:14:00;10.80;99.90
2889;DHT22;1453;42.708;23.282;2023-04-01T04:16:27;10.90;99.90
2889;DHT22;1453;42.708;23.282;2023-04-01T04:18:53;10.90;99.90
2889;DHT22;1453;42.708;23.282;2023-04-01T04:21:19;10.80;99.90
2889;DHT22;1453;42.708;23.282;2023-04-01T04:23:44;10.70;99.90
2889;DHT22;1453;42.708;23.282;2023-04-01T04:26:12;10.70;99.90
2889;DHT22;1453;42.708;23.282;2023-04-01T04:28:40;10.50;99.90
2889;DHT22;1453;42.708;23.282;2023-04-01T04:31:06;10.20;99.90
2889;DHT22;1453;42.708;23.282;2023-04-01T04:33:34;10.00;99.90
2889;DHT22;1453;42.708;23.282;2023-04-01T04:36:00;10.00;99.90
2889;DHT22;1453;42.708;23.282;2023-04-01T04:38:27;9.90;99.90
2889;DHT22;1453;42.708;23.282;2023-04-01T04:40:54;10.00;99.90
2889;DHT22;1453;42.708;23.282;2023-04-01T04:43:20;10.10;99.90
2889;DHT22;1453;42.708;23.282;2023-04-01T04:45:46;10.00;99.90
2889;DHT22;1453;42.708;23.282;2023-04-01T04:48:13;9.80;99.90
2889;DHT22;1453;42.708;23.282;2023-04-01T04:50:44;9.60;99.90
2889;DHT22;1453;42.708;23.282;2023-04-01T04:53:12;9.80;99.90
2889;DHT22;1453;42.708;23.282;2023-04-01T04:55:46;10.10;99.90
2889;DHT22;1453;42.708;23.282;2023-04-01T04:58:14;10.20;99.90
2889;DHT22;1453;42.708;23.282;2023-04-01T05:00:40;10.30;99.90
2889;DHT22;1453;42.708;23.282;2023-04-01T05:03:06;10.10;99.90
2889;DHT22;1453;42.708;23.282;2023-04-01T05:05:32;10.20;99.90
2889;DHT22;1453;42.708;23.282;2023-04-01T05:07:58;10.20;99.90
2889;DHT22;1453;42.708;23.282;2023-04-01T05:10:24;10.30;99.90
2889;DHT22;1453;42.708;23.282;2023-04-01T05:12:50;10.40;99.90
2889;DHT22;1453;42.708;23.282;2023-04-01T05:15:16;10.20;99.90
2889;DHT22;1453;42.708;23.282;2023-04-01T05:17:42;9.80;99.90
2889;DHT22;1453;42.708;23.282;2023-04-01T05:20:08;9.90;99.90
2889;DHT22;1453;42.708;23.282;2023-04-01T05:22:34;10.00;99.90
2889;DHT22;1453;42.708;23.282;2023-04-01T05:25:00;10.10;99.90
2889;DHT22;1453;42.708;23.282;2023-04-01T05:27:25;10.20;99.90
2889;DHT22;1453;42.708;23.282;2023-04-01T05:29:51;10.20;99.90
2889;DHT22;1453;42.708;23.282;2023-04-01T05:32:17;10.40;99.90
2889;DHT22;1453;42.708;23.282;2023-04-01T05:34:43;9.80;99.90
2889;DHT22;1453;42.708;23.282;2023-04-01T05:37:08;9.80;99.90
2889;DHT22;1453;42.708;23.282;2023-04-01T05:39:38;9.80;99.90
2889;DHT22;1453;42.708;23.282;2023-04-01T05:42:06;9.90;99.90
2889;DHT22;1453;42.708;23.282;2023-04-01T05:44:33;10.20;99.90
2889;DHT22;1453;42.708;23.282;2023-04-01T05:46:59;10.60;99.90
2889;DHT22;1453;42.708;23.282;2023-04-01T05:49:25;10.90;99.90
2889;DHT22;1453;42.708;23.282;2023-04-01T05:51:51;11.30;99.90
2889;DHT22;1453;42.708;23.282;2023-04-01T05:54:17;11.60;99.90
2889;DHT22;1453;42.708;23.282;2023-04-01T05:56:43;11.70;99.90
2889;DHT22;1453;42.708;23.282;2023-04-01T05:59:10;11.80;99.90
2889;DHT22;1453;42.708;23.282;2023-04-01T06:01:36;11.90;99.90
2889;DHT22;1453;42.708;23.282;2023-04-01T06:04:02;12.00;99.90
2889;DHT22;1453;42.708;23.282;2023-04-01T06:06:29;12.00;99.90
2889;DHT22;1453;42.708;23.282;2023-04-01T06:09:01;12.20;99.90
2889;DHT22;1453;42.708;23.282;2023-04-01T06:23:54;13.90;97.80
2889;DHT22;1453;42.708;23.282;2023-04-01T06:26:37;13.60;96.50
2889;DHT22;1453;42.708;23.282;2023-04-01T06:32:52;14.10;95.90
2889;DHT22;1453;42.708;23.282;2023-04-01T06:38:57;14.70;92.80
2889;DHT22;1453;42.708;23.282;2023-04-01T06:47:21;13.30;94.80
2889;DHT22;1453;42.708;23.282;2023-04-01T06:53:06;13.70;94.30
2889;DHT22;1453;42.708;23.282;2023-04-01T06:55:47;13.90;94.00
2889;DHT22;1453;42.708;23.282;2023-04-01T06:58:38;13.80;93.30
2889;DHT22;1453;42.708;23.282;2023-04-01T07:01:10;13.50;94.30
2889;DHT22;1453;42.708;23.282;2023-04-01T07:04:06;13.50;95.40
2889;DHT22;1453;42.708;23.282;2023-04-01T07:06:39;13.60;96.00
2889;DHT22;1453;42.708;23.282;2023-04-01T07:09:21;13.80;95.50
2889;DHT22;1453;42.708;23.282;2023-04-01T07:11:50;13.80;95.80
2889;DHT22;1453;42.708;23.282;2023-04-01T07:14:39;13.70;96.60
2889;DHT22;1453;42.708;23.282;2023-04-01T07:17:23;13.70;96.90
2889;DHT22;1453;42.708;23.282;2023-04-01T07:20:11;14.00;97.20
2889;DHT22;1453;42.708;23.282;2023-04-01T07:22:48;13.90;96.50
2889;DHT22;1453;42.708;23.282;2023-04-01T07:27:45;13.90;98.50
2889;DHT22;1453;42.708;23.282;2023-04-01T07:30:17;14.10;98.30
2889;DHT22;1453;42.708;23.282;2023-04-01T07:33:05;14.10;98.30
2889;DHT22;1453;42.708;23.282;2023-04-01T07:35:46;14.30;97.80
2889;DHT22;1453;42.708;23.282;2023-04-01T07:44:27;13.90;99.90
2889;DHT22;1453;42.708;23.282;2023-04-01T07:52:39;14.10;99.50
2889;DHT22;1453;42.708;23.282;2023-04-01T08:01:24;14.30;98.50
2889;DHT22;1453;42.708;23.282;2023-04-01T08:07:14;14.10;98.50
2889;DHT22;1453;42.708;23.282;2023-04-01T08:18:59;14.40;99.90
2889;DHT22;1453;42.708;23.282;2023-04-01T08:21:42;14.70;99.00
2889;DHT22;1453;42.708;23.282;2023-04-01T08:24:37;15.00;97.20
2889;DHT22;1453;42.708;23.282;2023-04-01T08:32:59;14.80;98.90
2889;DHT22;1453;42.708;23.282;2023-04-01T08:35:55;15.30;98.30
2889;DHT22;1453;42.708;23.282;2023-04-01T08:38:36;15.80;95.50
2889;DHT22;1453;42.708;23.282;2023-04-01T08:54:18;21.30;76.40
2889;DHT22;1453;42.708;23.282;2023-04-01T08:57:15;22.30;69.10
2889;DHT22;1453;42.708;23.282;2023-04-01T09:08:25;23.40;56.60
2889;DHT22;1453;42.708;23.282;2023-04-01T09:14:07;22.20;58.00
2889;DHT22;1453;42.708;23.282;2023-04-01T09:34:57;19.10;60.70
2889;DHT22;1453;42.708;23.282;2023-04-01T09:49:42;18.80;63.40
2889;DHT22;1453;42.708;23.282;2023-04-01T10:07:54;17.80;58.80
2889;DHT22;1453;42.708;23.282;2023-04-01T10:10:52;17.90;58.80
2889;DHT22;1453;42.708;23.282;2023-04-01T10:25:25;17.20;57.70
2889;DHT22;1453;42.708;23.282;2023-04-01T10:28:08;17.20;59.20
2889;DHT22;1453;42.708;23.282;2023-04-01T10:48:24;17.30;60.90
2889;DHT22;1453;42.708;23.282;2023-04-01T10:54:49;16.90;66.40
2889;DHT22;1453;42.708;23.282;2023-04-01T10:57:34;16.90;66.30
2889;DHT22;1453;42.708;23.282;2023-04-01T11:18:56;16.50;65.80
2889;DHT22;1453;42.708;23.282;2023-04-01T11:25:08;16.90;66.90
2889;DHT22;1453;42.708;23.282;2023-04-01T11:36:11;16.00;68.50
2889;DHT22;1453;42.708;23.282;2023-04-01T11:38:49;15.50;75.10
2889;DHT22;1453;42.708;23.282;2023-04-01T11:44:26;14.50;97.60
